Time;durP1;ratioP1;P1;durP2;ratioP2;P2;SDS_P1;SDS_P2;PMS_P1;PMS_P2;Temp;Humidity;BMP_temperature;BMP_pressure;BME280_temperature;BME280_humidity;BME280_pressure;Samples;Min_cycle;Max_cycle;Signal;HPM_P1;HPM_P2
2023/03/10 00:01:20;;;;;;;1.30;0.90;;;;;;;12.68;74.37;97912.24;105171;1252;60861;-67
2023/03/10 00:03:49;;;;;;;0.90;0.90;;;;;;;12.65;74.78;97919.70;105149;1249;71613;-67
2023/03/10 00:06:19;;;;;;;1.00;1.00;;;;;;;12.74;74.00;97925.85;105229;1250;68264;-67
2023/03/10 00:08:48;;;;;;;0.90;0.80;;;;;;;12.69;71.56;97931.52;105206;1254;70793;-68
2023/03/10 00:11:17;;;;;;;0.70;0.50;;;;;;;12.72;72.36;97937.98;105131;1269;61327;-67
2023/03/10 00:18:57;;;;;;;1.20;0.50;;;;;;;12.29;71.47;97939.70;104774;1263;73837;-68
2023/03/10 00:21:28;;;;;;;0.70;0.70;;;;;;;12.11;69.83;97935.23;105065;1263;70122;-67
2023/03/10 00:23:57;;;;;;;0.80;0.60;;;;;;;11.96;69.43;97939.74;105100;1253;73437;-68
2023/03/10 00:26:27;;;;;;;0.60;0.60;;;;;;;11.90;70.76;97941.00;105168;1253;60852;-67
2023/03/10 00:28:55;;;;;;;0.60;0.60;;;;;;;11.90;70.16;97942.45;105162;1253;60878;-67
2023/03/10 00:31:25;;;;;;;0.50;0.50;;;;;;;11.95;71.16;97951.08;105141;1253;72650;-68
2023/03/10 00:33:54;;;;;;;0.70;0.70;;;;;;;11.90;69.09;97960.38;105064;1263;70147;-67
2023/03/10 00:36:26;;;;;;;0.60;0.60;;;;;;;11.88;69.20;97965.80;105076;1253;71331;-67
2023/03/10 00:38:55;;;;;;;0.80;0.60;;;;;;;11.90;68.93;97973.70;105139;1253;61093;-71
2023/03/10 00:41:29;;;;;;;0.80;0.60;;;;;;;11.88;66.16;97977.72;105092;1254;60788;-67
2023/03/10 00:43:59;;;;;;;0.80;0.60;;;;;;;11.79;66.48;97981.03;105066;1251;72141;-67
2023/03/10 00:46:31;;;;;;;0.60;0.60;;;;;;;11.73;66.97;97994.13;105169;1267;68129;-67
2023/03/10 00:49:01;;;;;;;0.60;0.60;;;;;;;11.64;67.00;98009.62;105140;1252;71987;-67
2023/03/10 00:51:30;;;;;;;0.70;0.60;;;;;;;11.66;67.96;98021.29;105152;1263;60774;-71
2023/03/10 00:54:02;;;;;;;0.90;0.70;;;;;;;11.65;67.65;98029.41;105224;1253;60869;-67
2023/03/10 00:56:30;;;;;;;0.70;0.60;;;;;;;11.50;67.53;98033.69;105023;1251;72817;-67
2023/03/10 00:59:00;;;;;;;0.70;0.70;;;;;;;11.37;67.89;98042.89;105044;1266;69121;-67
2023/03/10 01:01:31;;;;;;;0.90;0.70;;;;;;;11.20;67.81;98050.55;104962;1266;71124;-67
2023/03/10 01:04:02;;;;;;;0.60;0.60;;;;;;;11.15;68.45;98061.44;104752;1249;61342;-67
2023/03/10 01:06:31;;;;;;;0.70;0.70;;;;;;;11.15;68.64;98068.06;105146;1253;61466;-68
2023/03/10 01:09:00;;;;;;;0.70;0.60;;;;;;;11.25;68.45;98070.02;105050;1253;72714;-67
2023/03/10 01:11:41;;;;;;;1.10;0.70;;;;;;;11.16;66.96;98073.63;105112;1253;68305;-68
2023/03/10 01:14:12;;;;;;;0.50;0.50;;;;;;;11.03;67.66;98078.91;105118;1253;72266;-67
2023/03/10 01:16:40;;;;;;;0.70;0.60;;;;;;;10.99;68.10;98084.80;105103;1253;60760;-67
2023/03/10 01:19:09;;;;;;;0.60;0.60;;;;;;;10.96;68.61;98094.82;105053;1253;60818;-68
2023/03/10 01:21:38;;;;;;;0.70;0.70;;;;;;;10.92;68.75;98097.38;104661;1267;72737;-67
2023/03/10 01:24:07;;;;;;;0.50;0.40;;;;;;;10.90;68.41;98107.13;105146;1263;68714;-67
2023/03/10 01:26:37;;;;;;;0.80;0.60;;;;;;;10.80;68.82;98116.79;105217;1254;73200;-67
2023/03/10 01:29:06;;;;;;;1.20;0.80;;;;;;;10.81;69.75;98119.52;105011;1249;60896;-68
2023/03/10 01:31:35;;;;;;;1.00;0.80;;;;;;;10.90;68.96;98128.02;105062;1254;60855;-68
2023/03/10 01:34:04;;;;;;;0.60;0.60;;;;;;;10.91;69.19;98131.99;105144;1263;72500;-68
2023/03/10 01:36:33;;;;;;;0.50;0.50;;;;;;;10.91;69.10;98133.70;105238;1261;68159;-67
2023/03/10 01:39:01;;;;;;;0.80;0.80;;;;;;;10.98;69.41;98143.11;104918;1254;72197;-68
2023/03/10 01:41:30;;;;;;;3.80;0.80;;;;;;;11.01;67.75;98146.71;105045;1253;64356;-68
2023/03/10 01:43:59;;;;;;;0.80;0.80;;;;;;;11.01;67.26;98151.27;105118;1254;60935;-67
2023/03/10 01:46:40;;;;;;;0.70;0.70;;;;;;;10.97;67.09;98158.02;104741;1257;73452;-67
2023/03/10 01:49:21;;;;;;;0.70;0.60;;;;;;;10.94;66.99;98164.02;105108;1258;70325;-68
2023/03/10 01:52:04;;;;;;;0.60;0.60;;;;;;;11.01;66.93;98166.73;104690;1254;72968;-68
2023/03/10 01:54:56;;;;;;;0.90;0.90;;;;;;;10.99;65.12;98175.45;104677;1256;60965;-67
2023/03/10 01:57:27;;;;;;;0.70;0.60;;;;;;;10.82;65.45;98173.61;104911;1254;60783;-68
2023/03/10 01:59:56;;;;;;;0.80;0.80;;;;;;;10.81;66.10;98176.63;105048;1253;72079;-67
2023/03/10 02:02:26;;;;;;;1.00;0.60;;;;;;;10.83;65.66;98174.73;104903;1251;68339;-67
2023/03/10 02:04:54;;;;;;;0.60;0.60;;;;;;;10.85;64.96;98171.45;104786;1250;71784;-67
2023/03/10 02:07:25;;;;;;;0.60;0.60;;;;;;;10.91;64.88;98169.86;104703;1251;60865;-67
2023/03/10 02:09:55;;;;;;;1.20;0.60;;;;;;;10.95;65.26;98177.13;104597;1249;61005;-67
2023/03/10 02:12:23;;;;;;;0.70;0.70;;;;;;;10.92;65.41;98202.00;104904;1251;71750;-67
2023/03/10 02:14:55;;;;;;;2.00;0.80;;;;;;;10.85;65.75;98216.13;105163;1264;69161;-66
2023/03/10 02:17:25;;;;;;;0.60;0.60;;;;;;;10.85;64.84;98223.17;104812;1254;71334;-67
2023/03/10 02:20:12;;;;;;;0.90;0.70;;;;;;;10.86;64.40;98235.01;104515;1258;60856;-67
2023/03/10 02:22:41;;;;;;;0.60;0.60;;;;;;;10.72;65.06;98243.81;104703;1260;60676;-67
2023/03/10 02:25:32;;;;;;;0.70;0.70;;;;;;;10.68;64.68;98247.08;104554;1257;71712;-69
2023/03/10 02:28:00;;;;;;;1.30;0.80;;;;;;;10.68;65.24;98251.61;104861;1249;69976;-67
2023/03/10 02:30:29;;;;;;;0.40;0.40;;;;;;;10.73;64.89;98251.48;104630;1270;72784;-67
2023/03/10 02:33:00;;;;;;;1.20;0.50;;;;;;;10.72;65.42;98264.49;104701;1273;62076;-67
2023/03/10 02:35:29;;;;;;;1.30;0.80;;;;;;;10.72;65.73;98269.75;104605;1267;61739;-67
2023/03/10 02:38:03;;;;;;;0.80;0.60;;;;;;;10.78;65.58;98276.43;104881;1263;72674;-67
2023/03/10 02:40:36;;;;;;;0.80;0.80;;;;;;;10.78;65.06;98283.08;104965;1260;67945;-67
2023/03/10 02:43:25;;;;;;;0.80;0.80;;;;;;;10.81;65.41;98287.04;104924;1263;72409;-67
2023/03/10 02:45:59;;;;;;;0.70;0.70;;;;;;;10.78;65.15;98287.95;104903;1271;61698;-67
2023/03/10 02:48:30;;;;;;;2.30;0.90;;;;;;;10.80;65.46;98292.40;104930;1264;61586;-67
2023/03/10 02:51:00;;;;;;;0.80;0.80;;;;;;;10.88;64.79;98294.35;104694;1255;72605;-66
2023/03/10 02:53:29;;;;;;;1.30;1.20;;;;;;;10.90;63.82;98296.30;104963;1251;68840;-66
2023/03/10 02:55:58;;;;;;;0.70;0.70;;;;;;;10.91;63.49;98297.83;104540;1252;71068;-66
2023/03/10 02:58:29;;;;;;;0.80;0.80;;;;;;;10.80;63.14;98293.96;105053;1257;61659;-66
2023/03/10 03:00:58;;;;;;;0.80;0.80;;;;;;;10.78;63.64;98294.12;104800;1259;61717;-66
2023/03/10 03:03:26;;;;;;;0.90;0.90;;;;;;;10.71;63.20;98300.31;105039;1263;73440;-66
2023/03/10 03:05:55;;;;;;;0.80;0.70;;;;;;;10.76;63.69;98308.95;104688;1260;69092;-65
2023/03/10 03:08:28;;;;;;;0.60;0.60;;;;;;;10.80;63.33;98304.16;104844;1254;71193;-66
2023/03/10 03:10:58;;;;;;;0.80;0.80;;;;;;;10.76;62.51;98306.29;104918;1253;61665;-66
2023/03/10 03:13:26;;;;;;;0.50;0.50;;;;;;;10.83;62.89;98311.69;104880;1253;61679;-67
2023/03/10 03:15:55;;;;;;;0.80;0.80;;;;;;;10.89;63.64;98314.24;104833;1251;73293;-66
2023/03/10 03:18:25;;;;;;;0.80;0.80;;;;;;;10.92;63.62;98319.33;104991;1250;68996;-66
2023/03/10 03:20:54;;;;;;;1.10;0.90;;;;;;;10.93;63.43;98324.84;105177;1254;72364;-67
2023/03/10 03:23:22;;;;;;;1.40;1.20;;;;;;;11.00;63.03;98336.52;104688;1272;61707;-66
2023/03/10 03:25:51;;;;;;;1.30;1.00;;;;;;;10.97;61.73;98342.13;104625;1249;61781;-66
2023/03/10 03:28:21;;;;;;;2.00;1.20;;;;;;;10.97;60.95;98344.79;105195;1261;72775;-65
2023/03/10 03:30:50;;;;;;;2.00;1.30;;;;;;;10.88;60.98;98355.48;105221;1261;69000;-67
2023/03/10 03:33:19;;;;;;;1.30;1.20;;;;;;;10.81;61.16;98356.64;105124;1266;71797;-67
2023/03/10 03:35:47;;;;;;;1.70;1.20;;;;;;;10.79;61.31;98357.86;104851;1258;63309;-66
2023/03/10 03:38:17;;;;;;;1.10;1.10;;;;;;;10.80;61.18;98363.92;105238;1251;61671;-67
2023/03/10 03:40:46;;;;;;;1.30;1.20;;;;;;;10.83;60.97;98368.08;104773;1251;73969;-72
2023/03/10 03:43:16;;;;;;;1.30;1.20;;;;;;;10.70;61.20;98371.75;105214;1251;69675;-68
2023/03/10 03:45:50;;;;;;;4.20;1.60;;;;;;;10.62;61.80;98375.55;105098;1266;72334;-68
2023/03/10 03:48:20;;;;;;;1.30;1.20;;;;;;;10.59;61.59;98377.34;105127;1250;62030;-67
2023/03/10 03:50:50;;;;;;;2.30;1.30;;;;;;;10.61;61.17;98383.48;104698;1249;61662;-68
2023/03/10 03:53:23;;;;;;;1.50;1.40;;;;;;;10.56;61.96;98388.36;105062;1257;73557;-67
2023/03/10 03:55:52;;;;;;;1.40;1.30;;;;;;;10.54;61.59;98394.48;105033;1253;68548;-67
2023/03/10 03:58:22;;;;;;;1.40;1.30;;;;;;;10.49;61.10;98397.56;104996;1250;72246;-67
2023/03/10 04:00:51;;;;;;;3.10;2.10;;;;;;;10.42;60.96;98395.03;105148;1252;61701;-69
2023/03/10 04:03:19;;;;;;;1.70;1.40;;;;;;;10.47;60.13;98400.50;105084;1267;61576;-67
2023/03/10 04:05:48;;;;;;;1.90;1.30;;;;;;;10.44;59.92;98402.77;104542;1260;74985;-67
2023/03/10 04:08:20;;;;;;;1.60;1.50;;;;;;;10.45;60.66;98404.67;105262;1251;68605;-67
2023/03/10 04:10:53;;;;;;;1.20;1.10;;;;;;;10.52;60.57;98412.60;104701;1256;70919;-68
2023/03/10 04:13:27;;;;;;;1.50;1.40;;;;;;;10.48;59.51;98416.17;105055;1250;61624;-68
2023/03/10 04:15:57;;;;;;;1.40;1.00;;;;;;;10.47;59.26;98410.80;104999;1251;61665;-67
2023/03/10 04:18:28;;;;;;;2.20;1.30;;;;;;;10.42;58.86;98412.35;105156;1254;72959;-68
2023/03/10 04:21:00;;;;;;;1.50;1.20;;;;;;;10.43;59.07;98413.52;105286;1250;68803;-67
2023/03/10 04:23:29;;;;;;;1.20;1.10;;;;;;;10.34;60.00;98416.88;105068;1248;72361;-66
2023/03/10 04:26:00;;;;;;;1.10;1.00;;;;;;;10.39;60.17;98422.41;105035;1270;61678;-67
2023/03/10 04:28:29;;;;;;;1.40;1.30;;;;;;;10.42;59.55;98419.58;104661;1264;61566;-66
2023/03/10 04:30:58;;;;;;;1.20;1.00;;;;;;;10.44;59.39;98418.37;105096;1267;73461;-67
2023/03/10 04:33:29;;;;;;;1.10;1.00;;;;;;;10.46;58.86;98411.95;104627;1256;67929;-66
2023/03/10 04:36:02;;;;;;;1.20;1.10;;;;;;;10.49;57.97;98412.30;104613;1254;72121;-66
2023/03/10 04:38:32;;;;;;;2.10;1.10;;;;;;;10.51;57.96;98410.05;105120;1254;61682;-66
2023/03/10 04:41:01;;;;;;;1.60;1.30;;;;;;;10.50;57.79;98413.98;104918;1261;61676;-67
2023/03/10 04:43:32;;;;;;;1.20;1.10;;;;;;;10.47;58.12;98415.36;105243;1251;73313;-67
2023/03/10 04:46:01;;;;;;;2.30;1.00;;;;;;;10.45;58.30;98415.20;104561;1253;69216;-66
2023/03/10 04:48:29;;;;;;;1.60;1.40;;;;;;;10.44;58.33;98423.64;104759;1254;71697;-67
2023/03/10 04:51:00;;;;;;;1.20;1.10;;;;;;;10.45;56.34;98424.11;105022;1250;61672;-68
2023/03/10 04:53:31;;;;;;;1.10;1.00;;;;;;;10.42;56.74;98421.12;104991;1254;61710;-67
2023/03/10 04:56:01;;;;;;;1.60;1.20;;;;;;;10.43;57.77;98421.92;105109;1253;72417;-66
2023/03/10 04:58:31;;;;;;;1.50;1.40;;;;;;;10.48;56.61;98417.63;104782;1257;69104;-66
2023/03/10 05:00:59;;;;;;;1.30;1.20;;;;;;;10.48;55.96;98428.64;104681;1267;72036;-66
2023/03/10 05:03:35;;;;;;;1.50;1.40;;;;;;;10.42;56.07;98442.31;104617;1257;61656;-67
2023/03/10 05:06:04;;;;;;;1.90;1.70;;;;;;;10.39;56.48;98450.54;105062;1254;61710;-66
2023/03/10 05:08:36;;;;;;;1.90;1.40;;;;;;;10.30;55.27;98455.63;104848;1256;73600;-66
2023/03/10 05:11:06;;;;;;;1.30;1.20;;;;;;;10.27;55.67;98459.86;104770;1250;68939;-71
2023/03/10 05:13:35;;;;;;;2.20;1.60;;;;;;;10.35;57.17;98459.90;104674;1249;73548;-69
2023/03/10 05:16:04;;;;;;;2.10;1.40;;;;;;;10.46;57.37;98454.48;104843;1249;61790;-70
2023/03/10 05:18:35;;;;;;;2.90;1.10;;;;;;;10.55;56.64;98454.16;104987;1257;61570;-70
2023/03/10 05:21:04;;;;;;;1.90;1.70;;;;;;;10.54;55.36;98456.32;104675;1248;74301;-71
2023/03/10 05:23:33;;;;;;;3.20;1.40;;;;;;;10.51;55.55;98458.23;105019;1268;68866;-73
2023/03/10 05:26:03;;;;;;;1.10;1.00;;;;;;;10.48;54.95;98460.00;105380;1257;71360;-68
2023/03/10 05:28:33;;;;;;;1.30;1.20;;;;;;;10.45;54.62;98460.36;105094;1251;61691;-71
2023/03/10 05:31:07;;;;;;;1.60;1.40;;;;;;;10.49;54.67;98465.73;104846;1254;61707;-64
2023/03/10 05:33:35;;;;;;;2.10;1.50;;;;;;;10.48;54.89;98475.23;104702;1251;73227;-65
2023/03/10 05:36:06;;;;;;;1.90;1.30;;;;;;;10.48;53.97;98494.34;105127;1254;70657;-69
2023/03/10 05:38:35;;;;;;;1.70;1.40;;;;;;;10.49;53.94;98501.98;104665;1269;71786;-69
2023/03/10 05:41:07;;;;;;;1.80;1.40;;;;;;;10.52;54.12;98507.09;104996;1251;62154;-72
2023/03/10 05:43:38;;;;;;;1.40;1.20;;;;;;;10.53;53.71;98518.95;105025;1255;61716;-70
2023/03/10 05:46:09;;;;;;;1.60;1.50;;;;;;;10.55;52.89;98520.41;105187;1253;74051;-70
2023/03/10 05:48:44;;;;;;;2.50;1.50;;;;;;;10.56;53.38;98528.04;105134;1248;68007;-65
2023/03/10 05:51:13;;;;;;;2.50;1.30;;;;;;;10.54;52.69;98533.41;105096;1266;71779;-67
2023/03/10 05:53:43;;;;;;;1.40;1.20;;;;;;;10.58;52.02;98534.55;104659;1248;61671;-68
2023/03/10 05:56:16;;;;;;;1.70;1.30;;;;;;;10.62;51.93;98535.75;104647;1272;61165;-67
2023/03/10 05:58:45;;;;;;;2.70;1.40;;;;;;;10.62;51.81;98535.92;104972;1256;73885;-68
2023/03/10 06:01:15;;;;;;;1.20;1.10;;;;;;;10.66;51.92;98540.90;105179;1248;68147;-69
2023/03/10 06:03:45;;;;;;;1.40;1.30;;;;;;;10.67;51.03;98554.72;105079;1251;71626;-67
2023/03/10 06:06:17;;;;;;;2.40;1.10;;;;;;;10.67;51.06;98557.68;105478;1254;61685;-70
2023/03/10 06:08:47;;;;;;;1.50;1.20;;;;;;;10.72;50.84;98558.08;105162;1255;60932;-71
2023/03/10 06:11:17;;;;;;;2.70;1.10;;;;;;;10.76;50.69;98558.92;105663;1248;74070;-71
2023/03/10 06:13:47;;;;;;;2.70;1.10;;;;;;;10.75;50.55;98561.60;108155;1249;68611;-72
2023/03/10 06:16:16;;;;;;;1.80;1.40;;;;;;;10.78;50.01;98567.20;105407;1247;73019;-69
2023/03/10 06:18:52;;;;;;;1.40;1.10;;;;;;;10.80;48.88;98573.52;104672;1270;61692;-73
2023/03/10 06:21:20;;;;;;;1.00;0.90;;;;;;;10.75;49.85;98575.42;105355;1248;61455;-70
2023/03/10 06:23:48;;;;;;;1.50;1.30;;;;;;;10.74;49.19;98576.40;105030;1254;72889;-71
2023/03/10 06:26:17;;;;;;;1.20;1.10;;;;;;;10.81;50.22;98567.89;105467;1251;70019;-71
2023/03/10 06:28:46;;;;;;;2.50;1.50;;;;;;;10.92;49.57;98561.80;105605;1251;72139;-73
2023/03/10 06:31:23;;;;;;;1.90;1.20;;;;;;;11.01;51.01;98562.09;105086;1254;61657;-72
2023/03/10 06:33:51;;;;;;;1.10;0.90;;;;;;;11.09;50.43;98565.63;104995;1249;61611;-72
2023/03/10 06:36:20;;;;;;;1.10;1.00;;;;;;;11.14;49.53;98562.91;105451;1251;72622;-72
2023/03/10 06:38:49;;;;;;;1.70;1.10;;;;;;;11.23;50.19;98564.96;105201;1253;68514;-72
2023/03/10 06:41:17;;;;;;;1.20;1.10;;;;;;;11.29;50.48;98554.76;105316;1264;71076;-72
2023/03/10 06:43:46;;;;;;;1.40;1.00;;;;;;;11.37;50.38;98543.53;105309;1251;61690;-69
2023/03/10 06:46:15;;;;;;;1.40;1.30;;;;;;;11.43;50.18;98541.73;105292;1261;61697;-70
2023/03/10 06:48:44;;;;;;;1.30;0.90;;;;;;;11.43;49.61;98542.95;105431;1250;73205;-71
2023/03/10 06:51:15;;;;;;;1.00;0.90;;;;;;;11.46;48.39;98536.98;105255;1251;69800;-70
2023/03/10 06:53:44;;;;;;;0.90;0.80;;;;;;;11.45;49.15;98528.86;105299;1254;72414;-71
2023/03/10 06:56:15;;;;;;;0.90;0.90;;;;;;;11.41;50.66;98522.44;105355;1254;61709;-72
2023/03/10 06:58:48;;;;;;;1.20;1.10;;;;;;;11.38;50.65;98518.74;105403;1249;61692;-70
2023/03/10 07:01:30;;;;;;;1.10;1.00;;;;;;;11.42;50.58;98518.84;105629;1249;72958;-73
2023/03/10 07:03:59;;;;;;;2.10;1.40;;;;;;;11.47;49.94;98511.83;105585;1251;69187;-70
2023/03/10 07:06:31;;;;;;;1.70;1.30;;;;;;;11.53;50.15;98520.92;105394;1253;71918;-71
2023/03/10 07:09:18;;;;;;;1.30;1.20;;;;;;;11.57;50.20;98525.92;105107;1251;61678;-70
2023/03/10 07:11:47;;;;;;;1.40;1.30;;;;;;;11.63;48.76;98537.82;105870;1248;61685;-71
2023/03/10 07:14:16;;;;;;;1.70;1.60;;;;;;;11.69;49.16;98548.64;108935;1248;73731;-70
2023/03/10 07:16:45;;;;;;;2.00;1.80;;;;;;;11.70;48.64;98550.76;107614;1248;69838;-70
2023/03/10 07:19:13;;;;;;;1.90;1.60;;;;;;;11.74;47.20;98548.05;106082;1249;73185;-70
2023/03/10 07:21:42;;;;;;;4.70;1.90;;;;;;;11.79;48.44;98550.88;105488;1254;61666;-70
2023/03/10 07:24:11;;;;;;;2.90;2.10;;;;;;;11.78;48.62;98559.36;105622;1253;61634;-71
2023/03/10 07:26:40;;;;;;;2.20;2.00;;;;;;;11.84;48.41;98566.89;105858;1253;74057;-70
2023/03/10 07:29:10;;;;;;;3.30;1.70;;;;;;;11.89;48.52;98569.57;105530;1247;68287;-74
2023/03/10 07:31:39;;;;;;;1.90;1.60;;;;;;;11.95;47.01;98595.48;104908;1254;73140;-72
2023/03/10 07:34:09;;;;;;;1.70;1.40;;;;;;;11.97;47.46;98602.00;105077;1254;61720;-71
2023/03/10 07:36:38;;;;;;;3.00;2.30;;;;;;;11.92;46.99;98615.89;105149;1248;61957;-72
2023/03/10 07:39:07;;;;;;;2.10;1.60;;;;;;;11.81;46.14;98621.66;105226;1260;75597;-73
2023/03/10 07:41:35;;;;;;;2.00;1.80;;;;;;;11.74;46.66;98611.42;105680;1251;69974;-73
2023/03/10 07:44:04;;;;;;;2.70;1.70;;;;;;;11.78;46.53;98612.89;105056;1254;72216;-73
2023/03/10 07:46:33;;;;;;;2.90;2.00;;;;;;;11.91;48.53;98614.55;105361;1251;61685;-70
2023/03/10 07:49:05;;;;;;;2.40;1.90;;;;;;;12.07;48.97;98617.55;105285;1253;61665;-72
2023/03/10 07:51:34;;;;;;;1.90;1.80;;;;;;;12.13;46.07;98621.02;105257;1251;72872;-66
2023/03/10 07:54:03;;;;;;;1.60;1.50;;;;;;;12.11;46.37;98617.31;105129;1250;68999;-68
2023/03/10 07:56:32;;;;;;;2.60;1.60;;;;;;;12.17;47.51;98609.89;105237;1251;72390;-69
2023/03/10 07:59:01;;;;;;;1.70;1.40;;;;;;;12.26;48.82;98597.33;105350;1248;61703;-70
2023/03/10 08:01:34;;;;;;;2.10;1.90;;;;;;;12.27;47.63;98602.16;105452;1247;61566;-71
2023/03/10 08:04:03;;;;;;;2.60;1.90;;;;;;;12.30;48.10;98594.63;105340;1248;74114;-70
2023/03/10 08:06:34;;;;;;;2.40;2.20;;;;;;;12.31;48.18;98587.37;105463;1247;69242;-71
2023/03/10 08:09:03;;;;;;;2.00;1.90;;;;;;;12.42;48.99;98585.58;104925;1250;71643;-70
2023/03/10 08:11:32;;;;;;;1.80;1.70;;;;;;;12.55;47.67;98590.14;105351;1253;61629;-71
2023/03/10 08:14:01;;;;;;;3.70;2.10;;;;;;;12.61;47.40;98595.67;105489;1251;61592;-69
2023/03/10 08:16:30;;;;;;;2.50;1.90;;;;;;;12.64;46.59;98585.13;105220;1254;73468;-69
2023/03/10 08:18:59;;;;;;;1.80;1.70;;;;;;;12.73;45.30;98586.61;105239;1248;68274;-69
2023/03/10 08:21:28;;;;;;;2.10;1.90;;;;;;;12.80;46.32;98589.44;105223;1257;72242;-70
2023/03/10 08:23:59;;;;;;;2.60;2.10;;;;;;;12.84;46.14;98586.36;105500;1251;61647;-70
2023/03/10 08:26:28;;;;;;;1.90;1.70;;;;;;;12.90;45.44;98591.64;105516;1252;61596;-71
2023/03/10 08:28:56;;;;;;;2.20;1.70;;;;;;;12.83;45.44;98596.11;105276;1266;74652;-71
2023/03/10 08:31:25;;;;;;;2.20;2.00;;;;;;;12.91;44.80;98602.61;105226;1253;68670;-70
2023/03/10 08:33:55;;;;;;;1.60;1.50;;;;;;;12.94;44.43;98596.98;105222;1250;73864;-70
2023/03/10 08:36:28;;;;;;;1.90;1.70;;;;;;;12.98;45.88;98577.73;105250;1257;61074;-69
2023/03/10 08:38:58;;;;;;;1.80;1.70;;;;;;;13.04;46.44;98575.13;105087;1247;61697;-70
2023/03/10 08:41:32;;;;;;;2.40;1.50;;;;;;;13.12;45.54;98561.92;105242;1254;75244;-70
2023/03/10 08:44:04;;;;;;;4.20;2.20;;;;;;;13.25;47.15;98555.23;104829;1251;70251;-71
2023/03/10 08:46:33;;;;;;;1.80;1.30;;;;;;;13.42;46.85;98552.83;104903;1257;72980;-72
2023/03/10 08:49:03;;;;;;;1.60;1.50;;;;;;;13.57;46.06;98552.56;105533;1251;61697;-71
2023/03/10 08:51:32;;;;;;;1.90;1.70;;;;;;;13.70;45.17;98541.68;105659;1251;61699;-69
2023/03/10 08:54:00;;;;;;;1.50;1.40;;;;;;;13.78;45.21;98545.45;104809;1250;72747;-70
2023/03/10 08:56:29;;;;;;;1.90;1.80;;;;;;;13.80;45.68;98553.23;104959;1253;68811;-72
2023/03/10 08:58:59;;;;;;;1.90;1.60;;;;;;;13.86;44.40;98562.67;105099;1250;73126;-73
2023/03/10 09:01:33;;;;;;;2.30;1.50;;;;;;;13.95;43.61;98564.79;105547;1253;61750;-71
2023/03/10 09:04:04;;;;;;;1.50;1.40;;;;;;;13.96;42.45;98564.92;104702;1257;61607;-72
2023/03/10 09:06:32;;;;;;;2.20;1.90;;;;;;;13.90;42.83;98568.52;105259;1253;73920;-72
2023/03/10 09:09:01;;;;;;;1.90;1.70;;;;;;;13.89;43.47;98572.48;105281;1251;70509;-71
2023/03/10 09:11:31;;;;;;;1.70;1.60;;;;;;;13.90;44.60;98569.23;105061;1254;73313;-72
2023/03/10 09:14:00;;;;;;;1.80;1.60;;;;;;;13.96;45.17;98571.40;105284;1250;61708;-71
2023/03/10 09:16:29;;;;;;;1.60;1.50;;;;;;;14.11;45.84;98573.16;105474;1253;61695;-73
2023/03/10 09:18:58;;;;;;;1.80;1.70;;;;;;;14.21;44.84;98577.48;105374;1251;74922;-71
2023/03/10 09:21:27;;;;;;;2.20;1.80;;;;;;;14.27;44.55;98581.85;105102;1257;69475;-70
2023/03/10 09:23:59;;;;;;;1.70;1.50;;;;;;;14.23;42.25;98582.98;105271;1253;72247;-72
2023/03/10 09:26:29;;;;;;;1.90;1.70;;;;;;;14.25;43.72;98581.24;105438;1266;61617;-71
2023/03/10 09:29:03;;;;;;;1.60;1.50;;;;;;;14.34;43.75;98580.05;105531;1254;61583;-72
2023/03/10 09:31:34;;;;;;;1.90;1.60;;;;;;;14.40;43.61;98580.14;104881;1264;74075;-69
2023/03/10 09:34:05;;;;;;;2.00;1.80;;;;;;;14.48;43.21;98580.98;105430;1251;69668;-70
2023/03/10 09:36:37;;;;;;;2.20;1.60;;;;;;;14.44;42.11;98580.05;104860;1254;74251;-71
2023/03/10 09:39:06;;;;;;;1.80;1.60;;;;;;;14.47;42.40;98574.17;104918;1254;61719;-71
2023/03/10 09:42:24;;;;;;;1.60;1.50;;;;;;;14.61;44.17;98575.09;104883;1256;61669;-71
2023/03/10 09:45:20;;;;;;;2.10;1.80;;;;;;;14.79;42.54;98580.17;104613;1256;71759;-69
2023/03/10 09:48:03;;;;;;;1.80;1.60;;;;;;;14.86;42.74;98580.02;105014;1257;69694;-70
2023/03/10 09:50:34;;;;;;;2.80;1.80;;;;;;;15.05;42.39;98585.82;105179;1254;72387;-70
2023/03/10 09:53:08;;;;;;;1.80;1.70;;;;;;;15.19;42.72;98586.30;105406;1251;61621;-72
2023/03/10 09:55:43;;;;;;;1.90;1.70;;;;;;;15.27;41.32;98584.96;105390;1257;62123;-67
2023/03/10 09:58:35;;;;;;;3.00;1.90;;;;;;;15.34;42.25;98586.31;105462;1248;73473;-68
2023/03/10 10:01:04;;;;;;;2.20;1.60;;;;;;;15.34;41.68;98583.48;105392;1266;68310;-71
2023/03/10 10:03:38;;;;;;;1.90;1.70;;;;;;;15.32;42.26;98576.09;104827;1256;72161;-70
2023/03/10 10:06:29;;;;;;;2.60;1.90;;;;;;;15.42;41.91;98575.88;105438;1253;61666;-70
2023/03/10 10:08:58;;;;;;;1.50;1.40;;;;;;;15.47;41.78;98573.47;105307;1248;61586;-69
2023/03/10 10:11:34;;;;;;;1.90;1.70;;;;;;;15.56;41.57;98583.55;105501;1250;73190;-69
2023/03/10 10:14:16;;;;;;;1.60;1.40;;;;;;;15.68;41.76;98586.30;105497;1253;69018;-69
2023/03/10 10:17:28;;;;;;;2.30;1.90;;;;;;;15.68;41.39;98573.02;105527;1251;73553;-69
2023/03/10 10:19:58;;;;;;;1.80;1.60;;;;;;;15.66;40.87;98564.77;105122;1250;61782;-69
2023/03/10 10:22:33;;;;;;;2.10;1.90;;;;;;;15.65;41.35;98558.45;108975;1249;60169;-68
2023/03/10 10:25:08;;;;;;;1.80;1.70;;;;;;;15.62;41.03;98559.95;108855;1250;74241;-68
2023/03/10 10:27:36;;;;;;;1.60;1.50;;;;;;;15.55;41.75;98561.73;108999;1249;70116;-67
2023/03/10 10:32:10;;;;;;;2.90;1.60;;;;;;;14.41;44.85;98554.00;102811;1289;600492;-69
2023/03/10 10:34:41;;;;;;;1.90;1.70;;;;;;;15.27;43.05;98552.69;104949;1259;60381;-71
2023/03/10 10:37:28;;;;;;;2.10;1.70;;;;;;;15.22;42.97;98549.34;104914;1257;60476;-70
2023/03/10 10:39:58;;;;;;;2.40;1.70;;;;;;;15.17;42.85;98540.77;104846;1260;72466;-71
2023/03/10 10:42:28;;;;;;;1.70;1.40;;;;;;;15.13;43.54;98531.52;104946;1254;69938;-71
2023/03/10 10:45:05;;;;;;;1.80;1.70;;;;;;;15.24;43.40;98525.54;104998;1257;242096;-70
2023/03/10 10:47:35;;;;;;;2.40;2.00;;;;;;;15.25;42.86;98520.48;105267;1256;60428;-70
2023/03/10 10:50:16;;;;;;;3.80;1.90;;;;;;;15.27;42.72;98532.15;104556;1258;60517;-69
2023/03/10 10:52:49;;;;;;;1.90;1.80;;;;;;;15.23;42.97;98538.66;104538;1263;73468;-69
2023/03/10 10:55:33;;;;;;;2.20;2.00;;;;;;;15.24;43.24;98535.94;104874;1263;69968;-68
2023/03/10 10:58:05;;;;;;;3.80;2.60;;;;;;;15.24;42.93;98528.73;104633;1268;72610;-69
2023/03/10 11:00:38;;;;;;;2.70;2.40;;;;;;;15.25;43.17;98518.03;104619;1258;60767;-71
2023/03/10 11:03:22;;;;;;;2.70;2.50;;;;;;;15.21;43.02;98517.49;104714;1256;61115;-68
2023/03/10 11:05:50;;;;;;;4.00;3.30;;;;;;;15.12;43.00;98511.67;104688;1273;73234;-71
2023/03/10 11:08:36;;;;;;;4.60;3.40;;;;;;;15.08;42.94;98513.96;105227;1252;69919;-68
2023/03/10 11:11:16;;;;;;;5.70;3.80;;;;;;;15.04;42.39;98518.81;105124;1269;73254;-68
2023/03/10 11:13:50;;;;;;;4.60;3.20;;;;;;;15.01;43.04;98528.36;105235;1254;60873;-68
2023/03/10 11:16:22;;;;;;;5.20;3.00;;;;;;;15.01;42.51;98525.05;105234;1248;60872;-67
2023/03/10 11:19:07;;;;;;;3.60;3.10;;;;;;;15.10;42.69;98523.84;105352;1253;73086;-67
2023/03/10 11:21:37;;;;;;;5.00;3.60;;;;;;;15.10;42.09;98522.41;105506;1253;68230;-69
2023/03/10 11:24:41;;;;;;;3.60;3.00;;;;;;;15.07;42.81;98511.67;105260;1252;72151;-70
2023/03/10 11:27:16;;;;;;;3.70;2.90;;;;;;;14.93;43.41;98509.44;105037;1256;60869;-69
2023/03/10 11:29:58;;;;;;;3.30;2.80;;;;;;;14.82;43.38;98515.74;105190;1260;60755;-69
2023/03/10 11:32:39;;;;;;;4.30;2.90;;;;;;;14.81;43.67;98509.17;104692;1254;72025;-70
2023/03/10 11:35:19;;;;;;;14.80;7.60;;;;;;;14.79;43.36;98507.39;105165;1264;69651;-70
2023/03/10 11:37:52;;;;;;;7.90;5.40;;;;;;;14.83;44.75;98514.33;104682;1255;72639;-68
2023/03/10 11:40:38;;;;;;;6.50;3.80;;;;;;;14.89;44.28;98519.64;105252;1248;60760;-68
2023/03/10 11:43:26;;;;;;;11.50;6.10;;;;;;;14.94;44.67;98519.40;105043;1256;60914;-68
2023/03/10 11:45:55;;;;;;;11.90;5.40;;;;;;;14.93;43.93;98521.97;104739;1256;73304;-68
2023/03/10 11:48:27;;;;;;;10.00;5.40;;;;;;;14.99;44.69;98527.86;105097;1251;68320;-68
2023/03/10 11:51:00;;;;;;;8.40;5.10;;;;;;;14.94;44.38;98533.58;105068;1249;72007;-70
2023/03/10 11:53:34;;;;;;;5.40;4.00;;;;;;;14.90;44.18;98527.52;105170;1255;60732;-66